Terminal Aerodrome Forecast
Issued by NWS Wilmington, OH

Current Version | Previous Version | Text Only | Print | Product List | Glossary Off
Versions: 1 2 3 4 5 6 7 8 9 10 11 12 13 14 15 16 17 18 19 20 21 22 23 24 25 26 27 28

000
FTUS41 KILN 282300 AAB
TAFCMH
TAF AMD
KCMH 282300Z 2823/2918 15006KT P6SM VCTS SCT035CB OVC060
      TEMPO 2823/2824 6SM -SHRA BR BKN035
     FM290100 VRB03KT P6SM FEW035 BKN150
     FM290800 VRB02KT 4SM BR BKN150
     FM291400 24004KT P6SM BKN040=

USA.gov is the U.S. government's official web portal to all federal, state and local government web resources and services.